sensor_id;sensor_type;location;lat;lon;timestamp;temperature;humidity
26270;DHT22;15937;50.612;6.656;2023-04-24T00:02:25;10.70;99.90
26270;DHT22;15937;50.612;6.656;2023-04-24T00:06:27;10.80;99.90
26270;DHT22;15937;50.612;6.656;2023-04-24T00:10:34;10.80;99.90
26270;DHT22;15937;50.612;6.656;2023-04-24T00:14:36;10.70;99.90
26270;DHT22;15937;50.612;6.656;2023-04-24T00:18:38;10.70;99.90
26270;DHT22;15937;50.612;6.656;2023-04-24T00:22:40;10.60;99.90
26270;DHT22;15937;50.612;6.656;2023-04-24T00:26:43;10.60;99.90
26270;DHT22;15937;50.612;6.656;2023-04-24T00:30:45;10.50;99.90
26270;DHT22;15937;50.612;6.656;2023-04-24T00:34:47;10.50;99.90
26270;DHT22;15937;50.612;6.656;2023-04-24T00:38:48;10.40;99.90
26270;DHT22;15937;50.612;6.656;2023-04-24T00:42:50;10.40;99.90
26270;DHT22;15937;50.612;6.656;2023-04-24T00:46:52;10.40;99.90
26270;DHT22;15937;50.612;6.656;2023-04-24T00:50:56;10.10;99.90
26270;DHT22;15937;50.612;6.656;2023-04-24T00:54:59;10.00;99.90
26270;DHT22;15937;50.612;6.656;2023-04-24T00:59:01;10.00;99.90
26270;DHT22;15937;50.612;6.656;2023-04-24T01:03:04;10.00;99.90
26270;DHT22;15937;50.612;6.656;2023-04-24T01:07:08;10.00;99.90
26270;DHT22;15937;50.612;6.656;2023-04-24T01:11:12;9.80;99.90
26270;DHT22;15937;50.612;6.656;2023-04-24T01:15:14;9.70;99.90
26270;DHT22;15937;50.612;6.656;2023-04-24T01:19:16;9.70;99.90
26270;DHT22;15937;50.612;6.656;2023-04-24T01:23:19;9.60;99.90
26270;DHT22;15937;50.612;6.656;2023-04-24T01:27:22;9.50;99.90
26270;DHT22;15937;50.612;6.656;2023-04-24T01:31:23;9.40;99.90
26270;DHT22;15937;50.612;6.656;2023-04-24T01:35:26;9.30;99.90
26270;DHT22;15937;50.612;6.656;2023-04-24T01:39:28;9.30;99.90
26270;DHT22;15937;50.612;6.656;2023-04-24T01:43:30;9.20;99.90
26270;DHT22;15937;50.612;6.656;2023-04-24T01:47:33;9.10;99.90
26270;DHT22;15937;50.612;6.656;2023-04-24T01:51:34;9.00;99.90
26270;DHT22;15937;50.612;6.656;2023-04-24T01:55:36;8.90;99.90
26270;DHT22;15937;50.612;6.656;2023-04-24T01:59:38;8.90;99.90
26270;DHT22;15937;50.612;6.656;2023-04-24T02:03:40;8.80;99.90
26270;DHT22;15937;50.612;6.656;2023-04-24T02:07:42;8.90;99.90
26270;DHT22;15937;50.612;6.656;2023-04-24T02:11:44;8.70;99.90
26270;DHT22;15937;50.612;6.656;2023-04-24T02:15:45;8.80;99.90
26270;DHT22;15937;50.612;6.656;2023-04-24T02:19:47;8.70;99.90
26270;DHT22;15937;50.612;6.656;2023-04-24T02:23:49;8.60;99.90
26270;DHT22;15937;50.612;6.656;2023-04-24T02:27:50;8.50;99.90
26270;DHT22;15937;50.612;6.656;2023-04-24T02:31:52;8.50;99.90
26270;DHT22;15937;50.612;6.656;2023-04-24T02:35:54;8.50;99.90
26270;DHT22;15937;50.612;6.656;2023-04-24T02:39:55;8.40;99.90
26270;DHT22;15937;50.612;6.656;2023-04-24T02:43:58;8.50;99.90
26270;DHT22;15937;50.612;6.656;2023-04-24T02:48:00;8.50;99.90
26270;DHT22;15937;50.612;6.656;2023-04-24T02:52:01;8.40;99.90
26270;DHT22;15937;50.612;6.656;2023-04-24T02:56:03;8.20;99.90
26270;DHT22;15937;50.612;6.656;2023-04-24T03:00:06;8.20;99.90
26270;DHT22;15937;50.612;6.656;2023-04-24T03:04:08;8.20;99.90
26270;DHT22;15937;50.612;6.656;2023-04-24T03:08:11;8.10;99.90
26270;DHT22;15937;50.612;6.656;2023-04-24T03:12:14;8.20;99.90
26270;DHT22;15937;50.612;6.656;2023-04-24T03:16:15;8.20;99.90
26270;DHT22;15937;50.612;6.656;2023-04-24T03:20:17;8.20;99.90
26270;DHT22;15937;50.612;6.656;2023-04-24T03:24:19;8.30;99.90
26270;DHT22;15937;50.612;6.656;2023-04-24T03:28:22;8.20;99.90
26270;DHT22;15937;50.612;6.656;2023-04-24T03:32:24;8.20;99.90
26270;DHT22;15937;50.612;6.656;2023-04-24T03:36:25;8.20;99.90
26270;DHT22;15937;50.612;6.656;2023-04-24T03:40:28;8.20;99.90
26270;DHT22;15937;50.612;6.656;2023-04-24T03:44:31;8.20;99.90
26270;DHT22;15937;50.612;6.656;2023-04-24T03:48:32;8.20;99.90
26270;DHT22;15937;50.612;6.656;2023-04-24T03:52:34;8.30;99.90
26270;DHT22;15937;50.612;6.656;2023-04-24T03:56:36;8.30;99.90
26270;DHT22;15937;50.612;6.656;2023-04-24T04:00:38;8.30;99.90
26270;DHT22;15937;50.612;6.656;2023-04-24T04:04:41;8.40;99.90
26270;DHT22;15937;50.612;6.656;2023-04-24T04:08:43;8.40;99.90
26270;DHT22;15937;50.612;6.656;2023-04-24T04:12:53;8.40;99.90
26270;DHT22;15937;50.612;6.656;2023-04-24T04:16:58;8.40;99.90
26270;DHT22;15937;50.612;6.656;2023-04-24T04:21:00;8.50;99.90
26270;DHT22;15937;50.612;6.656;2023-04-24T04:25:03;8.40;99.90
26270;DHT22;15937;50.612;6.656;2023-04-24T04:29:05;8.40;99.90
26270;DHT22;15937;50.612;6.656;2023-04-24T04:33:10;8.50;99.90
26270;DHT22;15937;50.612;6.656;2023-04-24T04:37:12;8.50;99.90
26270;DHT22;15937;50.612;6.656;2023-04-24T04:41:14;8.50;99.90
26270;DHT22;15937;50.612;6.656;2023-04-24T04:45:19;8.50;99.90
26270;DHT22;15937;50.612;6.656;2023-04-24T04:49:22;8.60;99.90
26270;DHT22;15937;50.612;6.656;2023-04-24T04:53:25;8.60;99.90
26270;DHT22;15937;50.612;6.656;2023-04-24T04:57:27;8.60;99.90
26270;DHT22;15937;50.612;6.656;2023-04-24T05:01:29;8.50;99.90
26270;DHT22;15937;50.612;6.656;2023-04-24T05:05:33;8.60;99.90
26270;DHT22;15937;50.612;6.656;2023-04-24T05:10:03;8.60;99.90
26270;DHT22;15937;50.612;6.656;2023-04-24T05:14:05;8.70;99.90
26270;DHT22;15937;50.612;6.656;2023-04-24T05:18:19;8.70;99.90
26270;DHT22;15937;50.612;6.656;2023-04-24T05:22:30;8.70;99.90
26270;DHT22;15937;50.612;6.656;2023-04-24T05:26:33;8.80;99.90
26270;DHT22;15937;50.612;6.656;2023-04-24T05:30:36;8.90;99.90
26270;DHT22;15937;50.612;6.656;2023-04-24T05:34:52;8.90;99.90
26270;DHT22;15937;50.612;6.656;2023-04-24T05:38:54;8.80;99.90
26270;DHT22;15937;50.612;6.656;2023-04-24T05:42:58;8.80;99.90
26270;DHT22;15937;50.612;6.656;2023-04-24T05:47:14;8.70;99.90
26270;DHT22;15937;50.612;6.656;2023-04-24T05:51:15;8.70;99.90
26270;DHT22;15937;50.612;6.656;2023-04-24T05:55:17;8.70;99.90
26270;DHT22;15937;50.612;6.656;2023-04-24T05:59:19;8.60;99.90
26270;DHT22;15937;50.612;6.656;2023-04-24T06:03:21;8.60;99.90
26270;DHT22;15937;50.612;6.656;2023-04-24T06:07:24;8.70;99.90
26270;DHT22;15937;50.612;6.656;2023-04-24T06:11:26;8.70;99.90
26270;DHT22;15937;50.612;6.656;2023-04-24T06:15:29;8.60;99.90
26270;DHT22;15937;50.612;6.656;2023-04-24T06:19:31;8.60;99.90
26270;DHT22;15937;50.612;6.656;2023-04-24T06:23:33;8.40;99.90
26270;DHT22;15937;50.612;6.656;2023-04-24T06:27:35;8.50;99.90
26270;DHT22;15937;50.612;6.656;2023-04-24T06:31:36;8.40;99.90
26270;DHT22;15937;50.612;6.656;2023-04-24T06:35:38;8.40;99.90
26270;DHT22;15937;50.612;6.656;2023-04-24T06:39:40;8.30;99.90
26270;DHT22;15937;50.612;6.656;2023-04-24T06:43:43;8.40;99.90
26270;DHT22;15937;50.612;6.656;2023-04-24T06:47:45;8.40;99.90
26270;DHT22;15937;50.612;6.656;2023-04-24T06:51:47;8.50;99.90
26270;DHT22;15937;50.612;6.656;2023-04-24T06:55:48;8.40;99.90
26270;DHT22;15937;50.612;6.656;2023-04-24T06:59:50;8.40;99.90
26270;DHT22;15937;50.612;6.656;2023-04-24T07:03:52;8.40;99.90
26270;DHT22;15937;50.612;6.656;2023-04-24T07:07:54;8.40;99.90
26270;DHT22;15937;50.612;6.656;2023-04-24T07:11:56;8.40;99.90
26270;DHT22;15937;50.612;6.656;2023-04-24T07:15:58;8.50;99.90
26270;DHT22;15937;50.612;6.656;2023-04-24T07:20:00;8.30;99.90
26270;DHT22;15937;50.612;6.656;2023-04-24T07:24:02;8.40;99.90
26270;DHT22;15937;50.612;6.656;2023-04-24T07:28:04;8.40;99.90
26270;DHT22;15937;50.612;6.656;2023-04-24T07:32:06;8.50;99.90
26270;DHT22;15937;50.612;6.656;2023-04-24T07:36:09;8.50;99.90
26270;DHT22;15937;50.612;6.656;2023-04-24T07:40:16;8.50;99.90
26270;DHT22;15937;50.612;6.656;2023-04-24T07:44:18;8.30;99.90
26270;DHT22;15937;50.612;6.656;2023-04-24T07:48:20;8.30;99.90
26270;DHT22;15937;50.612;6.656;2023-04-24T07:52:23;8.30;99.90
26270;DHT22;15937;50.612;6.656;2023-04-24T07:56:25;8.40;99.90
26270;DHT22;15937;50.612;6.656;2023-04-24T08:00:28;8.40;99.90
26270;DHT22;15937;50.612;6.656;2023-04-24T08:04:30;8.20;99.90
26270;DHT22;15937;50.612;6.656;2023-04-24T08:08:32;8.10;99.90
26270;DHT22;15937;50.612;6.656;2023-04-24T08:12:34;8.10;99.90
26270;DHT22;15937;50.612;6.656;2023-04-24T08:16:36;7.90;99.90
26270;DHT22;15937;50.612;6.656;2023-04-24T08:20:38;7.90;99.90
26270;DHT22;15937;50.612;6.656;2023-04-24T08:24:40;7.80;99.90
26270;DHT22;15937;50.612;6.656;2023-04-24T08:28:42;7.80;99.90
26270;DHT22;15937;50.612;6.656;2023-04-24T08:32:44;7.60;99.90
26270;DHT22;15937;50.612;6.656;2023-04-24T08:36:46;7.70;99.90
26270;DHT22;15937;50.612;6.656;2023-04-24T08:40:49;7.80;99.90
26270;DHT22;15937;50.612;6.656;2023-04-24T08:44:51;7.90;99.90
26270;DHT22;15937;50.612;6.656;2023-04-24T08:48:53;8.00;99.90
26270;DHT22;15937;50.612;6.656;2023-04-24T08:52:55;8.20;99.90
26270;DHT22;15937;50.612;6.656;2023-04-24T08:56:59;8.00;99.90
26270;DHT22;15937;50.612;6.656;2023-04-24T09:01:05;8.20;99.90
26270;DHT22;15937;50.612;6.656;2023-04-24T09:05:08;8.10;99.90
26270;DHT22;15937;50.612;6.656;2023-04-24T09:09:10;8.00;99.90
26270;DHT22;15937;50.612;6.656;2023-04-24T09:13:15;7.90;99.90
26270;DHT22;15937;50.612;6.656;2023-04-24T09:17:17;8.10;99.90
26270;DHT22;15937;50.612;6.656;2023-04-24T09:21:21;8.20;99.90
26270;DHT22;15937;50.612;6.656;2023-04-24T09:25:32;8.00;99.90
26270;DHT22;15937;50.612;6.656;2023-04-24T09:29:34;8.20;99.90
26270;DHT22;15937;50.612;6.656;2023-04-24T09:33:36;8.30;99.90
26270;DHT22;15937;50.612;6.656;2023-04-24T09:37:43;8.30;99.90
26270;DHT22;15937;50.612;6.656;2023-04-24T09:41:54;8.40;99.90
26270;DHT22;15937;50.612;6.656;2023-04-24T09:46:00;8.60;99.90
26270;DHT22;15937;50.612;6.656;2023-04-24T09:50:16;8.70;99.90
26270;DHT22;15937;50.612;6.656;2023-04-24T09:54:21;8.90;99.90
26270;DHT22;15937;50.612;6.656;2023-04-24T09:58:26;9.00;99.90
26270;DHT22;15937;50.612;6.656;2023-04-24T10:02:31;8.60;99.90
26270;DHT22;15937;50.612;6.656;2023-04-24T10:06:34;8.50;99.90
26270;DHT22;15937;50.612;6.656;2023-04-24T10:10:43;8.50;99.90
26270;DHT22;15937;50.612;6.656;2023-04-24T10:14:46;8.90;99.90
26270;DHT22;15937;50.612;6.656;2023-04-24T10:18:49;8.70;99.90
26270;DHT22;15937;50.612;6.656;2023-04-24T10:22:53;8.60;99.90
26270;DHT22;15937;50.612;6.656;2023-04-24T10:26:55;8.40;99.90
26270;DHT22;15937;50.612;6.656;2023-04-24T10:30:58;8.20;99.90
26270;DHT22;15937;50.612;6.656;2023-04-24T10:35:00;8.30;99.90
26270;DHT22;15937;50.612;6.656;2023-04-24T10:39:03;8.60;99.90
26270;DHT22;15937;50.612;6.656;2023-04-24T10:43:08;9.10;99.90
26270;DHT22;15937;50.612;6.656;2023-04-24T10:47:13;9.30;99.90
26270;DHT22;15937;50.612;6.656;2023-04-24T10:51:15;9.50;99.90
26270;DHT22;15937;50.612;6.656;2023-04-24T11:04:32;9.10;99.90
26270;DHT22;15937;50.612;6.656;2023-04-24T11:08:44;8.80;99.90
26270;DHT22;15937;50.612;6.656;2023-04-24T11:12:46;8.60;99.90
26270;DHT22;15937;50.612;6.656;2023-04-24T11:16:54;8.50;99.90
26270;DHT22;15937;50.612;6.656;2023-04-24T11:20:59;8.30;99.90
26270;DHT22;15937;50.612;6.656;2023-04-24T11:25:11;8.70;99.90
26270;DHT22;15937;50.612;6.656;2023-04-24T11:29:15;8.90;99.90
26270;DHT22;15937;50.612;6.656;2023-04-24T11:33:22;9.00;99.90
26270;DHT22;15937;50.612;6.656;2023-04-24T11:37:26;9.60;99.90
26270;DHT22;15937;50.612;6.656;2023-04-24T11:41:28;9.70;99.90
26270;DHT22;15937;50.612;6.656;2023-04-24T11:45:30;10.00;99.90
26270;DHT22;15937;50.612;6.656;2023-04-24T11:49:32;9.90;99.90
26270;DHT22;15937;50.612;6.656;2023-04-24T11:53:36;9.60;99.90
26270;DHT22;15937;50.612;6.656;2023-04-24T11:57:38;9.60;99.90
26270;DHT22;15937;50.612;6.656;2023-04-24T12:01:47;10.00;99.90
26270;DHT22;15937;50.612;6.656;2023-04-24T12:05:49;10.20;99.90
26270;DHT22;15937;50.612;6.656;2023-04-24T12:09:59;11.30;99.90
26270;DHT22;15937;50.612;6.656;2023-04-24T12:14:11;11.20;99.90
26270;DHT22;15937;50.612;6.656;2023-04-24T12:18:14;11.60;99.90
26270;DHT22;15937;50.612;6.656;2023-04-24T12:22:16;11.20;99.90
26270;DHT22;15937;50.612;6.656;2023-04-24T12:26:19;10.60;99.90
26270;DHT22;15937;50.612;6.656;2023-04-24T12:30:25;11.00;99.90
26270;DHT22;15937;50.612;6.656;2023-04-24T12:34:28;10.70;99.90
26270;DHT22;15937;50.612;6.656;2023-04-24T12:38:32;10.60;99.90
26270;DHT22;15937;50.612;6.656;2023-04-24T12:42:44;10.30;99.90
26270;DHT22;15937;50.612;6.656;2023-04-24T12:46:46;10.10;99.90
26270;DHT22;15937;50.612;6.656;2023-04-24T12:50:48;10.00;99.90
26270;DHT22;15937;50.612;6.656;2023-04-24T12:54:50;10.70;99.90
26270;DHT22;15937;50.612;6.656;2023-04-24T12:58:52;11.20;99.90
26270;DHT22;15937;50.612;6.656;2023-04-24T13:02:54;11.40;99.90
26270;DHT22;15937;50.612;6.656;2023-04-24T13:06:56;11.00;99.90
26270;DHT22;15937;50.612;6.656;2023-04-24T13:10:58;11.60;99.90
26270;DHT22;15937;50.612;6.656;2023-04-24T13:15:00;11.50;99.90
26270;DHT22;15937;50.612;6.656;2023-04-24T13:19:02;11.80;99.90
26270;DHT22;15937;50.612;6.656;2023-04-24T13:23:04;11.80;99.90
26270;DHT22;15937;50.612;6.656;2023-04-24T13:27:06;12.20;99.90
26270;DHT22;15937;50.612;6.656;2023-04-24T13:31:07;11.50;99.90
26270;DHT22;15937;50.612;6.656;2023-04-24T13:35:09;11.50;99.90
26270;DHT22;15937;50.612;6.656;2023-04-24T13:39:11;11.60;99.90
26270;DHT22;15937;50.612;6.656;2023-04-24T13:43:13;11.40;99.90
26270;DHT22;15937;50.612;6.656;2023-04-24T13:47:15;11.10;99.90
26270;DHT22;15937;50.612;6.656;2023-04-24T13:51:17;10.40;99.90
26270;DHT22;15937;50.612;6.656;2023-04-24T13:55:18;10.30;99.90
26270;DHT22;15937;50.612;6.656;2023-04-24T13:59:20;11.20;99.90
26270;DHT22;15937;50.612;6.656;2023-04-24T14:03:25;11.70;99.90
26270;DHT22;15937;50.612;6.656;2023-04-24T14:07:28;11.50;99.90
26270;DHT22;15937;50.612;6.656;2023-04-24T14:11:29;11.10;99.90
26270;DHT22;15937;50.612;6.656;2023-04-24T14:15:31;10.80;99.90
26270;DHT22;15937;50.612;6.656;2023-04-24T14:19:33;10.80;99.90
26270;DHT22;15937;50.612;6.656;2023-04-24T14:23:35;11.00;99.90
26270;DHT22;15937;50.612;6.656;2023-04-24T14:27:36;10.80;99.90
26270;DHT22;15937;50.612;6.656;2023-04-24T14:31:39;11.20;99.90
26270;DHT22;15937;50.612;6.656;2023-04-24T14:35:41;11.30;99.90
26270;DHT22;15937;50.612;6.656;2023-04-24T14:39:46;11.80;99.90
26270;DHT22;15937;50.612;6.656;2023-04-24T14:44:31;11.40;99.90
26270;DHT22;15937;50.612;6.656;2023-04-24T15:09:04;11.40;99.90
26270;DHT22;15937;50.612;6.656;2023-04-24T15:13:17;11.60;99.90
26270;DHT22;15937;50.612;6.656;2023-04-24T15:18:00;11.20;99.90
26270;DHT22;15937;50.612;6.656;2023-04-24T15:22:46;11.70;99.90
26270;DHT22;15937;50.612;6.656;2023-04-24T15:27:03;11.50;99.90
26270;DHT22;15937;50.612;6.656;2023-04-24T15:31:42;11.30;99.90
26270;DHT22;15937;50.612;6.656;2023-04-24T15:36:19;11.40;99.90
26270;DHT22;15937;50.612;6.656;2023-04-24T15:40:43;11.50;99.90
26270;DHT22;15937;50.612;6.656;2023-04-24T15:45:12;11.20;99.90
26270;DHT22;15937;50.612;6.656;2023-04-24T15:50:02;11.30;99.90
26270;DHT22;15937;50.612;6.656;2023-04-24T15:54:34;11.20;99.90
26270;DHT22;15937;50.612;6.656;2023-04-24T15:58:36;11.10;99.90
26270;DHT22;15937;50.612;6.656;2023-04-24T16:02:38;11.20;99.90
26270;DHT22;15937;50.612;6.656;2023-04-24T16:06:40;11.20;99.90
26270;DHT22;15937;50.612;6.656;2023-04-24T16:10:42;11.00;99.90
26270;DHT22;15937;50.612;6.656;2023-04-24T16:14:44;11.10;99.90
26270;DHT22;15937;50.612;6.656;2023-04-24T16:18:46;11.30;99.90
26270;DHT22;15937;50.612;6.656;2023-04-24T16:22:48;11.20;99.90
26270;DHT22;15937;50.612;6.656;2023-04-24T16:26:51;11.10;99.90
26270;DHT22;15937;50.612;6.656;2023-04-24T16:30:52;10.80;99.90
26270;DHT22;15937;50.612;6.656;2023-04-24T16:34:54;10.90;99.90
26270;DHT22;15937;50.612;6.656;2023-04-24T16:38:56;11.10;99.90
26270;DHT22;15937;50.612;6.656;2023-04-24T16:42:58;10.90;99.90
26270;DHT22;15937;50.612;6.656;2023-04-24T16:46:59;11.00;99.90
26270;DHT22;15937;50.612;6.656;2023-04-24T16:51:02;11.00;99.90
26270;DHT22;15937;50.612;6.656;2023-04-24T16:55:04;11.10;99.90
26270;DHT22;15937;50.612;6.656;2023-04-24T16:59:07;10.80;99.90
26270;DHT22;15937;50.612;6.656;2023-04-24T17:03:09;10.90;99.90
26270;DHT22;15937;50.612;6.656;2023-04-24T17:07:13;10.60;99.90
26270;DHT22;15937;50.612;6.656;2023-04-24T17:11:15;10.80;99.90
26270;DHT22;15937;50.612;6.656;2023-04-24T17:15:16;10.60;99.90
26270;DHT22;15937;50.612;6.656;2023-04-24T17:19:18;10.60;99.90
26270;DHT22;15937;50.612;6.656;2023-04-24T17:23:20;10.60;99.90
26270;DHT22;15937;50.612;6.656;2023-04-24T17:27:22;10.50;99.90
26270;DHT22;15937;50.612;6.656;2023-04-24T17:31:25;10.40;99.90
26270;DHT22;15937;50.612;6.656;2023-04-24T17:35:27;10.60;99.90
26270;DHT22;15937;50.612;6.656;2023-04-24T17:39:28;10.40;99.90
26270;DHT22;15937;50.612;6.656;2023-04-24T17:43:30;10.60;99.90
26270;DHT22;15937;50.612;6.656;2023-04-24T17:47:32;10.50;99.90
26270;DHT22;15937;50.612;6.656;2023-04-24T17:51:34;10.50;99.90
26270;DHT22;15937;50.612;6.656;2023-04-24T17:55:36;10.40;99.90
26270;DHT22;15937;50.612;6.656;2023-04-24T17:59:38;10.50;99.90
26270;DHT22;15937;50.612;6.656;2023-04-24T18:03:40;10.50;99.90
26270;DHT22;15937;50.612;6.656;2023-04-24T18:07:44;10.40;99.90
26270;DHT22;15937;50.612;6.656;2023-04-24T18:11:46;10.10;99.90
26270;DHT22;15937;50.612;6.656;2023-04-24T18:15:49;9.70;99.90
26270;DHT22;15937;50.612;6.656;2023-04-24T18:19:51;9.60;99.90
26270;DHT22;15937;50.612;6.656;2023-04-24T18:23:53;9.20;99.90
26270;DHT22;15937;50.612;6.656;2023-04-24T18:27:55;9.10;99.90
26270;DHT22;15937;50.612;6.656;2023-04-24T18:31:57;9.10;99.90
26270;DHT22;15937;50.612;6.656;2023-04-24T18:35:59;9.30;99.90
26270;DHT22;15937;50.612;6.656;2023-04-24T18:40:01;9.40;99.90
26270;DHT22;15937;50.612;6.656;2023-04-24T18:44:04;9.30;99.90
26270;DHT22;15937;50.612;6.656;2023-04-24T18:48:05;9.40;99.90
26270;DHT22;15937;50.612;6.656;2023-04-24T18:52:07;9.20;99.90
26270;DHT22;15937;50.612;6.656;2023-04-24T18:56:09;9.30;99.90
26270;DHT22;15937;50.612;6.656;2023-04-24T19:00:11;9.30;99.90
26270;DHT22;15937;50.612;6.656;2023-04-24T19:04:13;9.30;99.90
26270;DHT22;15937;50.612;6.656;2023-04-24T19:08:16;9.40;99.90
26270;DHT22;15937;50.612;6.656;2023-04-24T19:12:18;9.30;99.90
26270;DHT22;15937;50.612;6.656;2023-04-24T19:16:23;9.40;99.90
26270;DHT22;15937;50.612;6.656;2023-04-24T19:20:26;9.20;99.90
26270;DHT22;15937;50.612;6.656;2023-04-24T19:24:27;9.20;99.90
26270;DHT22;15937;50.612;6.656;2023-04-24T19:28:30;9.20;99.90
26270;DHT22;15937;50.612;6.656;2023-04-24T19:32:32;9.30;99.90
26270;DHT22;15937;50.612;6.656;2023-04-24T19:36:40;9.20;99.90
26270;DHT22;15937;50.612;6.656;2023-04-24T19:40:43;9.20;99.90
26270;DHT22;15937;50.612;6.656;2023-04-24T19:44:57;9.10;99.90
26270;DHT22;15937;50.612;6.656;2023-04-24T19:48:59;9.30;99.90
26270;DHT22;15937;50.612;6.656;2023-04-24T19:53:01;9.30;99.90
26270;DHT22;15937;50.612;6.656;2023-04-24T19:57:02;9.00;99.90
26270;DHT22;15937;50.612;6.656;2023-04-24T20:01:04;8.80;99.90
26270;DHT22;15937;50.612;6.656;2023-04-24T20:05:07;8.80;99.90
26270;DHT22;15937;50.612;6.656;2023-04-24T20:09:09;8.70;99.90
26270;DHT22;15937;50.612;6.656;2023-04-24T20:13:11;8.70;99.90
26270;DHT22;15937;50.612;6.656;2023-04-24T20:17:14;8.70;99.90
26270;DHT22;15937;50.612;6.656;2023-04-24T20:21:16;8.80;99.90
26270;DHT22;15937;50.612;6.656;2023-04-24T20:25:17;8.60;99.90
26270;DHT22;15937;50.612;6.656;2023-04-24T20:29:19;8.50;99.90
26270;DHT22;15937;50.612;6.656;2023-04-24T20:33:20;8.20;99.90
26270;DHT22;15937;50.612;6.656;2023-04-24T20:37:22;8.40;99.90
26270;DHT22;15937;50.612;6.656;2023-04-24T20:41:25;8.70;99.90
26270;DHT22;15937;50.612;6.656;2023-04-24T20:45:27;8.70;99.90
26270;DHT22;15937;50.612;6.656;2023-04-24T20:49:28;8.70;99.90
26270;DHT22;15937;50.612;6.656;2023-04-24T20:53:30;8.60;99.90
26270;DHT22;15937;50.612;6.656;2023-04-24T20:57:32;8.80;99.90
26270;DHT22;15937;50.612;6.656;2023-04-24T21:01:33;8.90;99.90
26270;DHT22;15937;50.612;6.656;2023-04-24T21:05:35;8.90;99.90
26270;DHT22;15937;50.612;6.656;2023-04-24T21:09:37;9.00;99.90
26270;DHT22;15937;50.612;6.656;2023-04-24T21:13:39;8.70;99.90
26270;DHT22;15937;50.612;6.656;2023-04-24T21:17:41;8.70;99.90
26270;DHT22;15937;50.612;6.656;2023-04-24T21:21:42;8.60;99.90
26270;DHT22;15937;50.612;6.656;2023-04-24T21:25:44;8.50;99.90
26270;DHT22;15937;50.612;6.656;2023-04-24T21:29:46;8.50;99.90
26270;DHT22;15937;50.612;6.656;2023-04-24T21:33:48;8.40;99.90
26270;DHT22;15937;50.612;6.656;2023-04-24T21:37:50;8.20;99.90
26270;DHT22;15937;50.612;6.656;2023-04-24T21:41:51;8.10;99.90
26270;DHT22;15937;50.612;6.656;2023-04-24T21:45:53;8.20;99.90
26270;DHT22;15937;50.612;6.656;2023-04-24T21:49:57;8.20;99.90
26270;DHT22;15937;50.612;6.656;2023-04-24T21:53:58;8.10;99.90
26270;DHT22;15937;50.612;6.656;2023-04-24T21:58:00;8.00;99.90
26270;DHT22;15937;50.612;6.656;2023-04-24T22:02:02;8.10;99.90
26270;DHT22;15937;50.612;6.656;2023-04-24T22:06:05;7.90;99.90
26270;DHT22;15937;50.612;6.656;2023-04-24T22:10:07;7.90;99.90
26270;DHT22;15937;50.612;6.656;2023-04-24T22:14:09;7.80;99.90
26270;DHT22;15937;50.612;6.656;2023-04-24T22:18:14;7.80;99.90
26270;DHT22;15937;50.612;6.656;2023-04-24T22:22:17;7.70;99.90
26270;DHT22;15937;50.612;6.656;2023-04-24T22:26:20;7.80;99.90
26270;DHT22;15937;50.612;6.656;2023-04-24T22:30:21;7.70;99.90
26270;DHT22;15937;50.612;6.656;2023-04-24T22:34:23;7.70;99.90
26270;DHT22;15937;50.612;6.656;2023-04-24T22:38:25;7.80;99.90
26270;DHT22;15937;50.612;6.656;2023-04-24T22:42:27;7.80;99.90
26270;DHT22;15937;50.612;6.656;2023-04-24T22:46:29;7.70;99.90
26270;DHT22;15937;50.612;6.656;2023-04-24T22:50:31;7.50;99.90
26270;DHT22;15937;50.612;6.656;2023-04-24T22:54:33;7.50;99.90
26270;DHT22;15937;50.612;6.656;2023-04-24T22:58:35;7.60;99.90
26270;DHT22;15937;50.612;6.656;2023-04-24T23:02:37;7.70;99.90
26270;DHT22;15937;50.612;6.656;2023-04-24T23:06:40;7.70;99.90
26270;DHT22;15937;50.612;6.656;2023-04-24T23:10:42;7.50;99.90
26270;DHT22;15937;50.612;6.656;2023-04-24T23:14:43;7.50;99.90
26270;DHT22;15937;50.612;6.656;2023-04-24T23:18:46;7.60;99.90
26270;DHT22;15937;50.612;6.656;2023-04-24T23:22:47;7.60;99.90
26270;DHT22;15937;50.612;6.656;2023-04-24T23:26:49;7.60;99.90
26270;DHT22;15937;50.612;6.656;2023-04-24T23:30:51;7.40;99.90
26270;DHT22;15937;50.612;6.656;2023-04-24T23:34:52;7.50;99.90
26270;DHT22;15937;50.612;6.656;2023-04-24T23:38:54;7.60;99.90
26270;DHT22;15937;50.612;6.656;2023-04-24T23:42:56;7.60;99.90
26270;DHT22;15937;50.612;6.656;2023-04-24T23:47:08;7.40;99.90
26270;DHT22;15937;50.612;6.656;2023-04-24T23:51:10;7.50;99.90
26270;DHT22;15937;50.612;6.656;2023-04-24T23:55:12;7.40;99.90
26270;DHT22;15937;50.612;6.656;2023-04-24T23:59:13;7.40;99.90
